Time;durP1;ratioP1;P1;durP2;ratioP2;P2;SDS_P1;SDS_P2;PMS_P1;PMS_P2;Temp;Humidity;BMP_temperature;BMP_pressure;BME280_temperature;BME280_humidity;BME280_pressure;Samples;Min_cycle;Max_cycle;Signal;HPM_P1;HPM_P2
2022/05/20 00:01:54;;;;;;;9.13;4.60;;;;;;;;;;4961496;28;20057;-90
2022/05/20 00:04:20;;;;;;;10.18;4.72;;;;;;;;;;4968700;28;20458;-90
2022/05/20 00:06:46;;;;;;;9.43;5.35;;;;;;;;;;4965997;28;20145;-90
2022/05/20 00:09:12;;;;;;;8.90;4.88;;;;;;;;;;4969291;28;20113;-89
2022/05/20 00:11:38;;;;;;;14.25;5.70;;;;;;;;;;4962725;28;20489;-89
2022/05/20 00:14:07;;;;;;;11.60;5.82;;;;;;;;;;4968624;28;20044;-90
2022/05/20 00:16:37;;;;;;;11.88;5.18;;;;;;;;;;4958274;28;20443;-90
2022/05/20 00:19:07;;;;;;;9.23;5.85;;;;;;;;;;4959397;28;20022;-90
2022/05/20 00:21:33;;;;;;;10.15;6.55;;;;;;;;;;4969644;28;20057;-90
2022/05/20 00:24:00;;;;;;;11.95;6.57;;;;;;;;;;4961111;28;20479;-90
2022/05/20 00:26:27;;;;;;;12.95;8.13;;;;;;;;;;4962928;28;20502;-90
2022/05/20 00:28:53;;;;;;;14.45;7.53;;;;;;;;;;4959487;28;20081;-90
2022/05/20 00:31:20;;;;;;;13.57;7.50;;;;;;;;;;4960014;28;20026;-90
2022/05/20 00:33:46;;;;;;;12.35;8.27;;;;;;;;;;4971142;28;20030;-90
2022/05/20 00:36:12;;;;;;;10.32;6.35;;;;;;;;;;4964001;28;20085;-89
2022/05/20 00:38:38;;;;;;;16.40;7.75;;;;;;;;;;4970747;28;20899;-89
2022/05/20 00:41:05;;;;;;;14.35;7.07;;;;;;;;;;4966475;28;20597;-90
2022/05/20 00:43:39;;;;;;;15.35;7.82;;;;;;;;;;4970119;28;20088;-90
2022/05/20 00:46:10;;;;;;;13.35;7.90;;;;;;;;;;4985234;28;20038;-89
2022/05/20 00:48:36;;;;;;;17.30;7.18;;;;;;;;;;4971324;28;20438;-90
2022/05/20 00:51:05;;;;;;;14.93;8.23;;;;;;;;;;4986289;28;20089;-90
2022/05/20 00:53:33;;;;;;;15.60;7.65;;;;;;;;;;4984007;28;20483;-90
2022/05/20 00:56:00;;;;;;;14.65;8.05;;;;;;;;;;4964981;28;20034;-90
2022/05/20 00:58:27;;;;;;;15.50;7.82;;;;;;;;;;4970045;28;20397;-90
2022/05/20 01:00:54;;;;;;;13.77;7.20;;;;;;;;;;4968586;28;20042;-90
2022/05/20 01:03:25;;;;;;;17.10;8.60;;;;;;;;;;4970421;28;20034;-89
2022/05/20 01:05:52;;;;;;;20.83;8.90;;;;;;;;;;4983122;28;20033;-90
2022/05/20 01:08:20;;;;;;;17.15;8.93;;;;;;;;;;4988272;28;20061;-90
2022/05/20 01:10:46;;;;;;;20.63;8.85;;;;;;;;;;4988383;28;20030;-90
2022/05/20 01:13:14;;;;;;;20.38;9.80;;;;;;;;;;4974929;28;20489;-89
2022/05/20 01:15:40;;;;;;;15.93;8.95;;;;;;;;;;4966343;28;20479;-90
2022/05/20 01:18:06;;;;;;;17.23;9.93;;;;;;;;;;4974785;28;20037;-91
2022/05/20 01:20:34;;;;;;;24.75;11.68;;;;;;;;;;4969194;28;20022;-88
2022/05/20 01:23:01;;;;;;;21.60;11.70;;;;;;;;;;4977072;28;20509;-89
2022/05/20 01:25:28;;;;;;;20.83;11.38;;;;;;;;;;4971169;28;20045;-91
2022/05/20 01:27:54;;;;;;;25.02;11.32;;;;;;;;;;4974051;28;20037;-90
2022/05/20 01:30:22;;;;;;;21.95;11.20;;;;;;;;;;4969312;28;20038;-90
2022/05/20 01:32:48;;;;;;;26.05;12.80;;;;;;;;;;4974381;28;20651;-90
2022/05/20 01:35:22;;;;;;;23.73;13.18;;;;;;;;;;4966974;28;20035;-90
2022/05/20 01:37:47;;;;;;;26.83;13.95;;;;;;;;;;4989886;28;20030;-90
2022/05/20 01:40:14;;;;;;;25.98;14.15;;;;;;;;;;4972138;28;20052;-89
2022/05/20 01:43:06;;;;;;;29.35;13.27;;;;;;;;;;4970655;28;20050;-90
2022/05/20 01:45:53;;;;;;;21.88;12.35;;;;;;;;;;4949361;28;20082;-90
2022/05/20 01:48:23;;;;;;;28.63;14.40;;;;;;;;;;4949781;28;20591;-90
2022/05/20 01:50:52;;;;;;;31.38;13.93;;;;;;;;;;4951097;28;20034;-90
2022/05/20 01:53:34;;;;;;;31.92;14.63;;;;;;;;;;4951334;28;20030;-93
2022/05/20 01:56:10;;;;;;;27.08;13.32;;;;;;;;;;4959282;28;20562;-91
2022/05/20 01:58:40;;;;;;;30.70;15.05;;;;;;;;;;4946000;28;20056;-88
2022/05/20 02:01:08;;;;;;;25.77;14.70;;;;;;;;;;4960894;28;20034;-89
2022/05/20 02:03:37;;;;;;;37.20;14.85;;;;;;;;;;4945320;28;20035;-90
2022/05/20 02:06:06;;;;;;;24.27;13.60;;;;;;;;;;4949004;28;20041;-90
2022/05/20 02:08:41;;;;;;;27.02;14.15;;;;;;;;;;4951364;28;20059;-89
2022/05/20 02:11:10;;;;;;;21.33;13.18;;;;;;;;;;4939298;28;20069;-89
2022/05/20 02:13:37;;;;;;;25.83;13.23;;;;;;;;;;4942112;28;20085;-89
2022/05/20 02:16:07;;;;;;;27.10;14.00;;;;;;;;;;4950828;28;20390;-90
2022/05/20 02:18:44;;;;;;;35.15;14.45;;;;;;;;;;4960615;28;20034;-89
2022/05/20 02:21:12;;;;;;;26.80;15.18;;;;;;;;;;4960499;28;20089;-90
2022/05/20 02:23:42;;;;;;;26.50;14.10;;;;;;;;;;4949996;28;20555;-90
2022/05/20 02:26:10;;;;;;;32.05;14.20;;;;;;;;;;4944793;28;20046;-90
2022/05/20 02:29:02;;;;;;;34.60;15.02;;;;;;;;;;4968064;28;20034;-90
2022/05/20 02:31:51;;;;;;;31.27;15.80;;;;;;;;;;4942784;28;20035;-90
2022/05/20 02:34:17;;;;;;;31.38;14.63;;;;;;;;;;4941007;28;20035;-89
2022/05/20 02:36:43;;;;;;;28.48;14.23;;;;;;;;;;4947881;28;20167;-89
2022/05/20 02:39:15;;;;;;;31.40;14.18;;;;;;;;;;4964905;28;20058;-89
2022/05/20 02:41:45;;;;;;;34.40;15.18;;;;;;;;;;4943759;28;20479;-89
2022/05/20 02:44:17;;;;;;;36.83;15.30;;;;;;;;;;4675168;28;8172600;-89
2022/05/20 02:46:50;;;;;;;28.05;14.77;;;;;;;;;;4977026;28;20114;-90
2022/05/20 02:49:18;;;;;;;31.05;15.23;;;;;;;;;;4968659;28;20050;-90
2022/05/20 02:51:44;;;;;;;32.67;13.23;;;;;;;;;;4978696;28;20058;-89
2022/05/20 02:54:10;;;;;;;32.15;13.15;;;;;;;;;;4964680;28;20043;-90
2022/05/20 02:56:38;;;;;;;41.72;14.77;;;;;;;;;;4966568;28;20030;-90
2022/05/20 03:04:33;;;;;;;31.60;14.45;;;;;;;;;;4984955;28;20041;-89
2022/05/20 03:06:59;;;;;;;30.08;12.50;;;;;;;;;;4967490;28;20030;-90
2022/05/20 03:09:26;;;;;;;31.67;13.60;;;;;;;;;;4968739;28;20038;-89
2022/05/20 03:11:52;;;;;;;35.20;14.30;;;;;;;;;;4984273;28;20470;-90
2022/05/20 03:14:19;;;;;;;27.88;14.02;;;;;;;;;;4971734;28;20031;-90
2022/05/20 03:16:45;;;;;;;23.92;12.95;;;;;;;;;;4972405;28;20023;-90
2022/05/20 03:19:12;;;;;;;28.15;14.32;;;;;;;;;;4966310;28;20099;-90
2022/05/20 03:21:39;;;;;;;27.60;12.98;;;;;;;;;;4978053;28;20038;-89
2022/05/20 03:24:06;;;;;;;28.35;14.13;;;;;;;;;;4962530;28;20406;-90
2022/05/20 03:26:32;;;;;;;40.25;16.48;;;;;;;;;;4965035;28;20034;-89
2022/05/20 03:28:59;;;;;;;29.42;14.02;;;;;;;;;;4969467;28;20034;-90
2022/05/20 03:31:26;;;;;;;34.72;13.85;;;;;;;;;;4979989;28;20527;-90
2022/05/20 03:33:52;;;;;;;33.05;14.30;;;;;;;;;;4961373;28;20035;-90
2022/05/20 03:36:18;;;;;;;29.38;13.80;;;;;;;;;;4964892;28;20399;-90
2022/05/20 03:38:45;;;;;;;40.53;14.98;;;;;;;;;;4968392;28;20089;-90
2022/05/20 03:41:11;;;;;;;25.42;13.57;;;;;;;;;;4982166;28;20070;-89
2022/05/20 03:43:37;;;;;;;29.15;14.10;;;;;;;;;;4967482;28;20054;-89
2022/05/20 03:46:04;;;;;;;34.28;13.27;;;;;;;;;;4966800;28;20113;-90
2022/05/20 03:48:30;;;;;;;33.92;13.88;;;;;;;;;;4963677;28;20153;-90
2022/05/20 03:50:56;;;;;;;39.55;13.13;;;;;;;;;;4966857;28;20553;-90
2022/05/20 03:53:22;;;;;;;26.02;13.75;;;;;;;;;;4985711;28;20081;-89
2022/05/20 03:55:52;;;;;;;31.55;15.50;;;;;;;;;;4964114;28;20089;-89
2022/05/20 03:58:17;;;;;;;34.25;14.18;;;;;;;;;;4959248;28;20081;-89
2022/05/20 04:03:28;;;;;;;33.72;13.88;;;;;;;;;;4986648;28;20049;-89
2022/05/20 04:05:54;;;;;;;41.13;16.40;;;;;;;;;;4986332;28;20037;-90
2022/05/20 04:08:20;;;;;;;32.38;16.55;;;;;;;;;;4968347;28;20521;-90
2022/05/20 04:10:46;;;;;;;36.35;16.77;;;;;;;;;;4962572;28;20462;-90
2022/05/20 04:13:13;;;;;;;41.28;17.30;;;;;;;;;;4977491;28;20059;-90
2022/05/20 04:15:40;;;;;;;37.28;17.17;;;;;;;;;;4966536;28;20054;-89
2022/05/20 04:18:06;;;;;;;39.85;16.90;;;;;;;;;;4988153;28;20117;-90
2022/05/20 04:20:33;;;;;;;46.47;17.08;;;;;;;;;;4971289;28;20570;-90
2022/05/20 04:23:00;;;;;;;36.42;16.17;;;;;;;;;;4964867;28;20038;-89
2022/05/20 04:25:26;;;;;;;42.17;17.85;;;;;;;;;;4958031;28;20530;-90
2022/05/20 04:27:52;;;;;;;33.63;18.35;;;;;;;;;;4962628;28;20038;-89
2022/05/20 04:30:18;;;;;;;41.88;17.00;;;;;;;;;;4969755;28;20045;-90
2022/05/20 04:32:45;;;;;;;39.65;17.65;;;;;;;;;;4967330;28;20820;-90
2022/05/20 04:35:11;;;;;;;32.67;16.05;;;;;;;;;;4964437;28;20109;-90
2022/05/20 04:37:37;;;;;;;33.63;17.10;;;;;;;;;;4966635;28;20073;-90
2022/05/20 04:40:03;;;;;;;32.42;17.52;;;;;;;;;;4985745;28;20022;-89
2022/05/20 04:48:02;;;;;;;41.10;19.08;;;;;;;;;;4978914;28;20382;-90
2022/05/20 04:50:28;;;;;;;36.55;16.83;;;;;;;;;;4966340;28;20213;-90
2022/05/20 04:52:54;;;;;;;41.20;19.02;;;;;;;;;;4983959;28;20041;-90
2022/05/20 04:55:20;;;;;;;35.47;17.98;;;;;;;;;;4978238;28;20042;-90
2022/05/20 04:57:47;;;;;;;30.60;16.75;;;;;;;;;;4972189;28;20030;-90
2022/05/20 05:00:18;;;;;;;36.03;17.85;;;;;;;;;;4983800;28;20038;-90
2022/05/20 05:02:44;;;;;;;37.78;16.65;;;;;;;;;;4966890;28;20570;-90
2022/05/20 05:05:11;;;;;;;30.50;16.55;;;;;;;;;;4967655;28;20497;-89
2022/05/20 05:07:42;;;;;;;29.65;16.30;;;;;;;;;;4983286;28;20034;-89
2022/05/20 05:10:08;;;;;;;34.92;16.45;;;;;;;;;;4984446;28;20037;-90
2022/05/20 05:12:34;;;;;;;29.60;15.25;;;;;;;;;;4965914;28;20754;-89
2022/05/20 05:15:01;;;;;;;25.92;12.10;;;;;;;;;;4962746;28;20113;-90
2022/05/20 05:20:17;;;;;;;23.53;12.63;;;;;;;;;;4985201;28;20097;-89
2022/05/20 05:22:43;;;;;;;25.60;11.57;;;;;;;;;;4971909;28;20038;-89
2022/05/20 05:25:14;;;;;;;20.60;11.65;;;;;;;;;;4987407;28;20034;-89
2022/05/20 05:27:40;;;;;;;20.05;11.15;;;;;;;;;;4973015;28;20026;-90
2022/05/20 05:30:07;;;;;;;21.85;9.75;;;;;;;;;;4981295;28;20056;-90
2022/05/20 05:32:34;;;;;;;16.05;9.57;;;;;;;;;;4965559;28;20034;-89
2022/05/20 05:35:01;;;;;;;17.27;9.75;;;;;;;;;;4967455;28;20129;-89
2022/05/20 05:37:27;;;;;;;20.85;10.40;;;;;;;;;;4968755;28;20398;-89
2022/05/20 05:39:53;;;;;;;15.35;9.05;;;;;;;;;;4979870;28;20172;-90
2022/05/20 05:42:20;;;;;;;16.33;8.43;;;;;;;;;;4966230;28;20118;-90
2022/05/20 05:44:46;;;;;;;19.02;9.50;;;;;;;;;;4984165;28;20652;-90
2022/05/20 05:47:12;;;;;;;17.35;8.77;;;;;;;;;;4983389;28;20037;-90
2022/05/20 05:49:38;;;;;;;19.73;9.82;;;;;;;;;;4968779;28;20445;-90
2022/05/20 05:52:05;;;;;;;20.05;9.02;;;;;;;;;;4962549;28;20066;-89
2022/05/20 05:54:32;;;;;;;17.20;9.13;;;;;;;;;;4962518;28;20129;-89
2022/05/20 05:56:59;;;;;;;17.42;9.38;;;;;;;;;;4965475;28;20070;-89
2022/05/20 05:59:25;;;;;;;22.70;9.18;;;;;;;;;;4960302;28;20037;-89
2022/05/20 06:01:56;;;;;;;19.73;8.52;;;;;;;;;;4969767;28;20026;-89
2022/05/20 06:04:22;;;;;;;18.40;8.68;;;;;;;;;;4962766;28;20124;-90
2022/05/20 06:06:48;;;;;;;17.67;7.72;;;;;;;;;;4968049;28;20859;-89
2022/05/20 06:09:21;;;;;;;16.95;8.30;;;;;;;;;;4971172;28;20034;-90
2022/05/20 06:11:47;;;;;;;17.42;7.50;;;;;;;;;;4973996;28;20035;-89
2022/05/20 06:14:13;;;;;;;16.92;7.97;;;;;;;;;;4965458;28;20034;-90
2022/05/20 06:16:39;;;;;;;13.10;7.43;;;;;;;;;;4961943;28;20620;-89
2022/05/20 06:19:05;;;;;;;14.15;7.60;;;;;;;;;;4965463;28;20246;-89
2022/05/20 06:21:31;;;;;;;14.63;8.02;;;;;;;;;;4986111;28;20666;-89
2022/05/20 06:24:00;;;;;;;16.60;7.80;;;;;;;;;;4959954;28;20492;-89
2022/05/20 06:26:26;;;;;;;19.73;7.90;;;;;;;;;;4968120;28;20468;-89
2022/05/20 06:28:52;;;;;;;21.40;8.40;;;;;;;;;;4958918;28;20047;-89
2022/05/20 06:31:18;;;;;;;17.42;8.57;;;;;;;;;;4968750;28;20042;-89
2022/05/20 06:33:44;;;;;;;16.27;6.93;;;;;;;;;;4965123;28;20039;-89
2022/05/20 06:41:40;;;;;;;14.57;7.97;;;;;;;;;;4987420;28;20037;-89
2022/05/20 06:44:06;;;;;;;16.20;6.97;;;;;;;;;;4962936;28;20506;-90
2022/05/20 06:46:32;;;;;;;10.48;4.97;;;;;;;;;;4984730;28;20054;-89
2022/05/20 06:49:00;;;;;;;9.38;5.72;;;;;;;;;;4961083;28;20034;-89
2022/05/20 06:51:27;;;;;;;11.93;5.40;;;;;;;;;;4971034;28;20030;-89
2022/05/20 06:53:54;;;;;;;12.45;5.65;;;;;;;;;;4967381;28;20031;-89
2022/05/20 06:56:21;;;;;;;15.60;6.90;;;;;;;;;;4966044;28;21225;-89
2022/05/20 06:58:48;;;;;;;11.55;6.30;;;;;;;;;;4964339;28;20054;-90
2022/05/20 07:01:14;;;;;;;11.68;6.85;;;;;;;;;;4980545;28;20029;-89
2022/05/20 07:03:41;;;;;;;13.02;5.63;;;;;;;;;;4964903;28;20687;-89
2022/05/20 07:06:07;;;;;;;10.40;5.38;;;;;;;;;;4983733;28;20026;-89
2022/05/20 07:08:34;;;;;;;14.90;6.40;;;;;;;;;;4966944;28;20494;-89
2022/05/20 07:11:01;;;;;;;11.80;6.53;;;;;;;;;;4968128;28;20034;-88
2022/05/20 07:13:28;;;;;;;11.60;5.85;;;;;;;;;;4966686;28;20049;-89
2022/05/20 07:15:54;;;;;;;13.32;4.90;;;;;;;;;;4965885;28;20031;-89
2022/05/20 07:18:20;;;;;;;11.00;5.30;;;;;;;;;;4986653;28;20031;-89
2022/05/20 07:20:46;;;;;;;11.32;5.70;;;;;;;;;;4985039;28;20102;-89
2022/05/20 07:23:12;;;;;;;11.90;6.80;;;;;;;;;;4961286;28;20042;-89
2022/05/20 07:25:38;;;;;;;10.15;5.35;;;;;;;;;;4967611;28;20038;-90
2022/05/20 07:28:05;;;;;;;10.50;4.82;;;;;;;;;;4961810;28;20105;-90
2022/05/20 07:30:31;;;;;;;11.02;5.28;;;;;;;;;;4978633;28;20792;-89
2022/05/20 07:32:58;;;;;;;10.93;5.70;;;;;;;;;;4964493;28;20089;-89
2022/05/20 07:35:24;;;;;;;10.27;5.25;;;;;;;;;;4962482;28;20077;-89
2022/05/20 07:37:51;;;;;;;11.63;4.90;;;;;;;;;;4963727;28;20604;-89
2022/05/20 07:40:17;;;;;;;6.60;4.85;;;;;;;;;;4966135;28;20026;-89
2022/05/20 07:42:43;;;;;;;9.65;4.55;;;;;;;;;;4969858;28;20046;-89
2022/05/20 07:45:09;;;;;;;10.93;4.93;;;;;;;;;;4963532;28;20125;-89
2022/05/20 07:47:35;;;;;;;15.70;4.57;;;;;;;;;;4962906;28;20034;-89
2022/05/20 07:50:03;;;;;;;14.48;4.88;;;;;;;;;;4957704;28;20093;-89
2022/05/20 07:55:16;;;;;;;13.77;4.10;;;;;;;;;;4984125;28;20049;-89
2022/05/20 07:57:42;;;;;;;11.88;4.55;;;;;;;;;;4982275;28;20018;-89
2022/05/20 08:00:12;;;;;;;6.80;4.30;;;;;;;;;;4972282;28;20030;-90
2022/05/20 08:02:40;;;;;;;5.80;3.78;;;;;;;;;;4979011;28;20046;-90
2022/05/20 08:05:07;;;;;;;7.93;3.95;;;;;;;;;;4965425;28;20134;-89
2022/05/20 08:07:37;;;;;;;13.52;4.03;;;;;;;;;;4979362;28;20445;-89
2022/05/20 08:10:05;;;;;;;8.45;3.70;;;;;;;;;;4963408;28;20030;-89
2022/05/20 08:12:31;;;;;;;13.07;3.15;;;;;;;;;;4965942;28;20098;-90
2022/05/20 08:14:57;;;;;;;8.68;3.25;;;;;;;;;;4987919;28;20038;-89
2022/05/20 08:17:24;;;;;;;14.07;3.70;;;;;;;;;;4980808;28;20200;-89
2022/05/20 08:19:52;;;;;;;7.00;2.67;;;;;;;;;;4972051;28;20538;-89
2022/05/20 08:22:25;;;;;;;13.07;3.17;;;;;;;;;;4970386;28;20065;-89
2022/05/20 08:24:57;;;;;;;11.98;4.13;;;;;;;;;;4981026;28;20415;-90
2022/05/20 08:27:24;;;;;;;17.98;3.67;;;;;;;;;;4967618;28;20019;-89
2022/05/20 08:29:51;;;;;;;7.00;3.20;;;;;;;;;;4972552;28;20030;-89
2022/05/20 08:32:17;;;;;;;10.15;3.75;;;;;;;;;;4968324;28;20061;-89
2022/05/20 08:34:43;;;;;;;7.07;3.38;;;;;;;;;;4971365;28;20050;-90
2022/05/20 08:37:09;;;;;;;10.15;3.95;;;;;;;;;;4966714;28;20026;-90
2022/05/20 08:39:36;;;;;;;5.70;3.50;;;;;;;;;;4963012;28;20239;-90
2022/05/20 08:42:02;;;;;;;14.55;3.38;;;;;;;;;;4965630;28;20460;-90
2022/05/20 08:44:30;;;;;;;8.05;3.70;;;;;;;;;;4985501;28;20061;-89
2022/05/20 08:47:13;;;;;;;9.35;3.20;;;;;;;;;;4966209;28;20442;-90
2022/05/20 08:49:40;;;;;;;8.55;2.78;;;;;;;;;;4965672;28;20030;-90
2022/05/20 08:52:06;;;;;;;8.88;2.85;;;;;;;;;;4965344;28;20125;-90
2022/05/20 08:54:32;;;;;;;5.60;2.70;;;;;;;;;;4969880;28;20038;-90
2022/05/20 08:57:09;;;;;;;6.07;3.35;;;;;;;;;;4966994;28;20026;-89
2022/05/20 08:59:36;;;;;;;8.50;3.50;;;;;;;;;;4965218;28;20546;-90
2022/05/20 09:02:02;;;;;;;6.30;3.28;;;;;;;;;;4972774;28;20474;-90
2022/05/20 09:04:28;;;;;;;3.88;2.53;;;;;;;;;;4965435;28;20082;-89
2022/05/20 09:07:00;;;;;;;6.10;2.97;;;;;;;;;;4970770;28;20151;-90
2022/05/20 09:09:27;;;;;;;4.97;2.92;;;;;;;;;;4985729;28;20405;-89
2022/05/20 09:11:58;;;;;;;9.13;3.33;;;;;;;;;;4962367;28;20494;-90
2022/05/20 09:17:11;;;;;;;6.60;3.00;;;;;;;;;;4983006;28;20122;-89
2022/05/20 09:19:38;;;;;;;6.10;2.83;;;;;;;;;;4957717;28;20027;-90
2022/05/20 09:22:12;;;;;;;6.18;3.13;;;;;;;;;;4967296;28;20515;-90
2022/05/20 09:24:39;;;;;;;5.25;2.97;;;;;;;;;;4964240;28;20050;-90
2022/05/20 09:27:07;;;;;;;4.20;3.10;;;;;;;;;;4988604;28;20046;-89
2022/05/20 09:29:33;;;;;;;7.07;3.30;;;;;;;;;;4973454;28;20044;-89
2022/05/20 09:32:02;;;;;;;10.63;3.50;;;;;;;;;;4985905;28;20540;-90
2022/05/20 09:34:27;;;;;;;10.50;3.47;;;;;;;;;;4965412;28;20030;-89
2022/05/20 09:36:58;;;;;;;9.68;3.35;;;;;;;;;;4966201;28;20138;-90
2022/05/20 09:39:32;;;;;;;7.22;3.60;;;;;;;;;;4968102;28;20027;-89
2022/05/20 09:42:00;;;;;;;14.50;4.22;;;;;;;;;;4966425;28;20456;-90
2022/05/20 09:44:33;;;;;;;19.52;3.78;;;;;;;;;;4984933;28;20089;-90
2022/05/20 09:47:00;;;;;;;6.43;3.00;;;;;;;;;;4968864;28;20097;-89
2022/05/20 09:49:52;;;;;;;4.18;2.90;;;;;;;;;;4973021;28;20045;-90
2022/05/20 09:52:21;;;;;;;4.78;2.55;;;;;;;;;;4958639;28;20528;-90
2022/05/20 09:54:57;;;;;;;7.80;2.50;;;;;;;;;;4971182;28;20129;-89
2022/05/20 09:57:24;;;;;;;4.90;2.92;;;;;;;;;;4964506;28;20522;-90
2022/05/20 10:00:04;;;;;;;7.07;2.60;;;;;;;;;;4968617;28;20105;-89
2022/05/20 10:02:38;;;;;;;6.68;2.50;;;;;;;;;;4961945;28;20125;-89
2022/05/20 10:05:23;;;;;;;6.80;2.53;;;;;;;;;;4967062;28;20124;-89
2022/05/20 10:07:57;;;;;;;6.40;2.70;;;;;;;;;;4964029;28;20030;-89
2022/05/20 10:10:26;;;;;;;7.95;3.10;;;;;;;;;;4961997;28;20054;-89
2022/05/20 10:12:53;;;;;;;6.40;2.38;;;;;;;;;;4971064;28;20548;-90
2022/05/20 10:15:28;;;;;;;3.53;2.17;;;;;;;;;;4983911;28;20490;-90
2022/05/20 10:18:12;;;;;;;5.18;2.30;;;;;;;;;;4982995;28;20422;-89
2022/05/20 10:20:52;;;;;;;7.57;2.83;;;;;;;;;;4958310;28;20084;-89
2022/05/20 10:23:39;;;;;;;7.32;3.13;;;;;;;;;;4971442;28;20034;-89
2022/05/20 10:26:05;;;;;;;9.02;2.33;;;;;;;;;;4986376;28;20030;-89
2022/05/20 10:34:31;;;;;;;5.43;2.30;;;;;;;;;;4983619;28;20386;-90
2022/05/20 10:37:03;;;;;;;12.20;2.83;;;;;;;;;;4983712;28;20023;-89
2022/05/20 10:39:48;;;;;;;8.35;2.78;;;;;;;;;;4969516;28;20030;-89
2022/05/20 10:42:21;;;;;;;5.13;2.30;;;;;;;;;;4966680;28;20026;-90
2022/05/20 10:50:31;;;;;;;7.88;3.80;;;;;;;;;;4986799;28;20557;-90
2022/05/20 10:52:57;;;;;;;5.57;3.37;;;;;;;;;;4962240;28;20031;-89
2022/05/20 10:55:39;;;;;;;8.43;2.97;;;;;;;;;;4969639;28;20041;-90
2022/05/20 10:58:11;;;;;;;5.20;2.58;;;;;;;;;;4983216;28;20117;-89
2022/05/20 11:00:43;;;;;;;6.07;2.63;;;;;;;;;;4983746;28;20485;-89
2022/05/20 11:03:32;;;;;;;5.43;2.65;;;;;;;;;;4962303;28;20030;-90
2022/05/20 11:06:19;;;;;;;8.70;3.65;;;;;;;;;;4963378;28;20112;-90
2022/05/20 11:08:48;;;;;;;9.35;3.25;;;;;;;;;;4962207;28;20030;-89
2022/05/20 11:11:22;;;;;;;5.13;3.28;;;;;;;;;;4965059;28;20038;-89
2022/05/20 11:14:07;;;;;;;7.97;3.47;;;;;;;;;;4980181;28;20027;-90
2022/05/20 11:16:39;;;;;;;7.22;3.60;;;;;;;;;;4982697;28;20064;-89
2022/05/20 11:19:08;;;;;;;6.93;3.38;;;;;;;;;;4970244;28;20244;-89
2022/05/20 11:21:34;;;;;;;5.97;3.70;;;;;;;;;;4979700;28;20030;-89
2022/05/20 11:24:09;;;;;;;9.25;3.42;;;;;;;;;;4984827;28;20304;-89
2022/05/20 11:26:50;;;;;;;6.13;3.60;;;;;;;;;;4967939;28;20030;-89
2022/05/20 11:29:47;;;;;;;6.53;3.65;;;;;;;;;;4965712;28;20077;-88
2022/05/20 11:32:14;;;;;;;;;;;;;;;;;;4889552;28;20059;-89
2022/05/20 11:34:55;;;;;;;7.20;3.22;;;;;;;;;;4963833;28;20416;-89
2022/05/20 11:37:39;;;;;;;9.32;4.13;;;;;;;;;;4964068;28;20065;-89
2022/05/20 11:40:17;;;;;;;10.05;3.65;;;;;;;;;;4970812;28;20042;-89
2022/05/20 11:42:43;;;;;;;9.98;3.88;;;;;;;;;;4962823;28;20108;-89
2022/05/20 11:45:20;;;;;;;6.95;2.70;;;;;;;;;;4967117;28;20096;-89
2022/05/20 11:47:58;;;;;;;7.90;2.78;;;;;;;;;;4969995;28;20030;-89
2022/05/20 11:50:24;;;;;;;9.00;3.53;;;;;;;;;;4969958;28;20023;-89
2022/05/20 11:52:50;;;;;;;6.10;3.58;;;;;;;;;;4963074;28;20498;-89
2022/05/20 11:55:16;;;;;;;8.05;3.72;;;;;;;;;;4961877;28;20427;-89
2022/05/20 11:57:45;;;;;;;7.47;3.38;;;;;;;;;;4965252;28;20383;-89
2022/05/20 12:00:16;;;;;;;10.20;4.00;;;;;;;;;;4970808;28;20026;-89
2022/05/20 12:03:02;;;;;;;6.43;3.65;;;;;;;;;;4969165;28;20026;-89
2022/05/20 12:05:33;;;;;;;13.63;4.80;;;;;;;;;;4960811;28;20034;-89
2022/05/20 12:08:02;;;;;;;5.97;3.33;;;;;;;;;;4970906;28;20035;-89
2022/05/20 12:10:31;;;;;;;12.07;3.88;;;;;;;;;;4968515;28;20030;-89
2022/05/20 12:13:16;;;;;;;7.07;4.25;;;;;;;;;;4970419;28;20026;-89
2022/05/20 12:15:44;;;;;;;15.75;5.10;;;;;;;;;;4971976;28;20050;-89
2022/05/20 12:24:15;;;;;;;16.63;5.95;;;;;;;;;;4989087;28;20073;-90
2022/05/20 12:26:40;;;;;;;6.50;4.95;;;;;;;;;;4993112;28;20553;-89
2022/05/20 12:29:25;;;;;;;13.80;5.63;;;;;;;;;;4977204;28;20041;-89
2022/05/20 12:31:51;;;;;;;13.02;5.00;;;;;;;;;;4977148;28;20042;-89
2022/05/20 12:34:36;;;;;;;20.35;4.95;;;;;;;;;;4975697;28;20486;-89
2022/05/20 12:37:03;;;;;;;8.40;4.95;;;;;;;;;;4980643;28;20023;-90
2022/05/20 12:39:55;;;;;;;9.10;4.65;;;;;;;;;;4991992;28;20401;-89
2022/05/20 12:42:23;;;;;;;9.90;5.20;;;;;;;;;;4979193;28;20486;-89
2022/05/20 12:44:49;;;;;;;14.43;5.65;;;;;;;;;;4984154;28;20042;-89
2022/05/20 12:47:17;;;;;;;12.82;4.93;;;;;;;;;;4972470;28;20402;-89
2022/05/20 12:49:46;;;;;;;10.98;5.28;;;;;;;;;;4972301;28;20509;-90
2022/05/20 12:52:18;;;;;;;13.88;6.00;;;;;;;;;;4972890;28;20034;-90
2022/05/20 12:54:49;;;;;;;11.93;5.30;;;;;;;;;;4971396;28;20073;-90
2022/05/20 12:57:35;;;;;;;9.30;4.78;;;;;;;;;;4969522;28;20026;-90
2022/05/20 13:00:05;;;;;;;8.35;4.75;;;;;;;;;;4971106;28;20096;-89
2022/05/20 13:02:35;;;;;;;11.38;5.25;;;;;;;;;;4966682;28;20031;-90
2022/05/20 13:05:17;;;;;;;9.45;5.10;;;;;;;;;;4968467;28;20506;-89
2022/05/20 13:07:44;;;;;;;11.75;5.15;;;;;;;;;;4964357;28;20038;-89
2022/05/20 13:10:29;;;;;;;14.07;6.35;;;;;;;;;;4967853;28;20117;-89
2022/05/20 13:13:02;;;;;;;10.43;5.60;;;;;;;;;;4969381;28;20038;-89
2022/05/20 13:15:29;;;;;;;8.10;4.93;;;;;;;;;;4972062;28;20038;-90
2022/05/20 13:18:04;;;;;;;13.35;5.38;;;;;;;;;;4970996;28;20478;-89
2022/05/20 13:20:32;;;;;;;9.25;5.60;;;;;;;;;;4967534;28;20022;-89
2022/05/20 13:22:59;;;;;;;9.88;5.05;;;;;;;;;;4971746;28;20129;-89
2022/05/20 13:25:25;;;;;;;10.25;5.22;;;;;;;;;;4970350;28;20121;-90
2022/05/20 13:27:51;;;;;;;12.10;4.88;;;;;;;;;;4969357;28;20037;-90
2022/05/20 13:30:19;;;;;;;24.83;4.28;;;;;;;;;;4986766;28;20038;-89
2022/05/20 13:32:45;;;;;;;21.27;4.85;;;;;;;;;;4968436;28;20085;-89
2022/05/20 13:35:11;;;;;;;7.95;4.53;;;;;;;;;;4968767;28;20479;-89
2022/05/20 13:37:44;;;;;;;18.70;5.53;;;;;;;;;;4964480;28;20049;-90
2022/05/20 13:40:16;;;;;;;5.68;3.65;;;;;;;;;;4963405;28;20387;-89
2022/05/20 13:42:50;;;;;;;14.63;4.45;;;;;;;;;;4969704;28;20113;-89
2022/05/20 13:49:12;;;;;;;10.25;3.70;;;;;;;;;;4972125;28;20052;-89
2022/05/20 13:50:57;;;;;;;20.25;5.78;;;;;;;;;;4982099;28;20401;-89
2022/05/20 13:53:23;;;;;;;10.15;6.05;;;;;;;;;;4968090;28;20045;-89
2022/05/20 13:55:49;;;;;;;8.40;4.68;;;;;;;;;;4963664;28;20038;-89
2022/05/20 13:58:15;;;;;;;10.32;5.03;;;;;;;;;;4986638;28;20022;-89
2022/05/20 14:00:45;;;;;;;21.42;6.55;;;;;;;;;;4968557;28;20489;-89
2022/05/20 14:03:20;;;;;;;10.20;5.50;;;;;;;;;;4982219;28;20026;-89
2022/05/20 14:05:46;;;;;;;11.57;5.78;;;;;;;;;;4968401;28;20676;-89
2022/05/20 14:08:12;;;;;;;15.57;7.07;;;;;;;;;;4955462;28;20382;-90
2022/05/20 14:10:40;;;;;;;13.50;7.30;;;;;;;;;;4964883;28;20066;-90
2022/05/20 14:13:06;;;;;;;11.82;7.65;;;;;;;;;;4971050;28;20077;-89
2022/05/20 14:15:52;;;;;;;13.43;7.53;;;;;;;;;;4968689;28;20078;-89
2022/05/20 14:18:21;;;;;;;14.65;7.00;;;;;;;;;;4961076;28;20039;-90
2022/05/20 14:20:49;;;;;;;12.48;7.13;;;;;;;;;;4982551;28;20050;-90
2022/05/20 14:23:16;;;;;;;13.57;7.97;;;;;;;;;;4969361;28;20429;-89
2022/05/20 14:26:03;;;;;;;15.07;8.35;;;;;;;;;;4972293;28;20022;-90
2022/05/20 14:28:29;;;;;;;;;;;;;;;;;;4980381;28;20061;-89
2022/05/20 14:30:56;;;;;;;16.65;8.60;;;;;;;;;;4990087;28;19910;-89
2022/05/20 14:33:22;;;;;;;21.45;8.60;;;;;;;;;;4962572;28;20034;-89
2022/05/20 14:35:50;;;;;;;14.70;9.43;;;;;;;;;;4968196;28;20038;-89
2022/05/20 14:38:22;;;;;;;21.17;10.38;;;;;;;;;;4970468;28;20402;-90
2022/05/20 14:40:52;;;;;;;20.55;10.70;;;;;;;;;;4968201;28;20030;-89
2022/05/20 14:43:25;;;;;;;17.90;9.70;;;;;;;;;;4967212;28;20031;-89
2022/05/20 14:45:56;;;;;;;19.17;10.77;;;;;;;;;;4969055;28;20545;-90
2022/05/20 14:48:32;;;;;;;20.88;10.57;;;;;;;;;;4973354;28;20041;-90
2022/05/20 14:50:58;;;;;;;13.40;9.85;;;;;;;;;;4961125;28;20034;-90
2022/05/20 14:53:27;;;;;;;19.35;10.43;;;;;;;;;;4964017;28;20403;-89
2022/05/20 14:55:55;;;;;;;13.60;8.88;;;;;;;;;;4967501;28;20096;-89
2022/05/20 14:58:24;;;;;;;17.95;10.02;;;;;;;;;;4970864;28;20469;-89
2022/05/20 15:00:54;;;;;;;28.42;10.32;;;;;;;;;;4983453;28;20033;-90
2022/05/20 15:03:21;;;;;;;22.58;10.95;;;;;;;;;;4983033;28;20050;-90
2022/05/20 15:05:48;;;;;;;20.85;11.02;;;;;;;;;;4969889;28;20173;-89
2022/05/20 15:08:14;;;;;;;18.48;10.60;;;;;;;;;;4971550;28;20525;-90
2022/05/20 15:10:41;;;;;;;23.70;11.88;;;;;;;;;;4972527;28;20053;-89
2022/05/20 15:13:07;;;;;;;26.25;12.38;;;;;;;;;;4987820;28;20486;-90
2022/05/20 15:15:34;;;;;;;26.55;12.15;;;;;;;;;;4969741;28;20073;-89
2022/05/20 15:18:03;;;;;;;25.63;12.13;;;;;;;;;;4966538;28;20058;-90
2022/05/20 15:20:30;;;;;;;18.55;11.02;;;;;;;;;;4968879;28;20205;-90
2022/05/20 15:22:57;;;;;;;27.65;11.27;;;;;;;;;;4955995;28;20031;-90
2022/05/20 15:25:23;;;;;;;28.50;13.27;;;;;;;;;;4967529;28;20064;-90
2022/05/20 15:27:49;;;;;;;26.73;13.02;;;;;;;;;;4964000;28;20434;-90
2022/05/20 15:30:16;;;;;;;32.20;13.10;;;;;;;;;;4968306;28;20252;-89
2022/05/20 15:35:27;;;;;;;26.48;13.27;;;;;;;;;;4987366;28;20165;-90